Time,TemperatureF,DewpointF,PressureIn,WindDirection,WindDirectionDegrees,WindSpeedMPH,WindSpeedGustMPH,Humidity,HourlyPrecipIn,Conditions,Clouds,dailyrainin,SolarRadiationWatts/m^2,SoftwareType,DateUTC
2013-01-15 00:00:00,25.0,21.7,30.29,North,4,3.0,5.0,87,0.00,,,0.00,0,Wunderground v.1.15,2013-01-15 05:00:00,
2013-01-15 00:05:00,24.9,21.6,30.29,NNE,17,3.0,5.0,87,0.00,,,0.00,0,Wunderground v.1.15,2013-01-15 05:05:00,
2013-01-15 00:15:00,24.8,21.5,30.29,North,9,2.0,2.0,87,0.00,,,0.00,0,Wunderground v.1.15,2013-01-15 05:15:00,
2013-01-15 00:20:00,24.7,21.4,30.29,North,349,2.0,2.0,87,0.00,,,0.00,0,Wunderground v.1.15,2013-01-15 05:20:00,
2013-01-15 00:30:00,24.6,21.6,30.29,ENE,60,3.0,3.0,88,0.00,,,0.00,0,Wunderground v.1.15,2013-01-15 05:30:00,
2013-01-15 00:35:00,24.5,21.5,30.29,NNE,23,2.0,3.0,88,0.00,,,0.00,0,Wunderground v.1.15,2013-01-15 05:35:00,
2013-01-15 00:45:00,24.4,21.4,30.29,NW,322,2.0,2.0,88,0.00,,,0.00,0,Wunderground v.1.15,2013-01-15 05:45:00,
2013-01-15 00:50:00,24.3,21.5,30.29,NNW,347,2.0,2.0,89,0.00,,,0.00,0,Wunderground v.1.15,2013-01-15 05:50:00,
2013-01-15 01:00:00,24.0,21.2,30.29,North,354,2.0,2.0,89,0.00,,,0.00,0,Wunderground v.1.15,2013-01-15 06:00:00,
2013-01-15 01:05:00,23.9,21.1,30.28,NNW,332,2.0,2.0,89,0.00,,,0.00,0,Wunderground v.1.15,2013-01-15 06:05:00,
2013-01-15 01:15:00,23.8,21.0,30.28,NNW,332,2.0,3.0,89,0.00,,,0.00,0,Wunderground v.1.15,2013-01-15 06:15:00,
2013-01-15 01:20:00,23.7,21.2,30.28,NNE,33,2.0,2.0,90,0.00,,,0.00,0,Wunderground v.1.15,2013-01-15 06:20:00,
2013-01-15 01:30:00,23.6,21.1,30.28,NNE,29,2.0,4.0,90,0.00,,,0.00,0,Wunderground v.1.15,2013-01-15 06:30:00,
2013-01-15 01:35:00,23.7,21.2,30.28,NE,42,2.0,4.0,90,0.00,,,0.00,0,Wunderground v.1.15,2013-01-15 06:35:00,
2013-01-15 01:45:00,23.6,21.1,30.28,North,349,2.0,2.0,90,0.00,,,0.00,0,Wunderground v.1.15,2013-01-15 06:45:00,
2013-01-15 01:50:00,23.6,21.1,30.28,NE,48,2.0,4.0,90,0.00,,,0.00,0,Wunderground v.1.15,2013-01-15 06:50:00,
2013-01-15 02:00:00,23.8,21.0,30.28,North,4,3.0,3.0,89,0.00,,,0.00,0,Wunderground v.1.15,2013-01-15 07:00:00,
2013-01-15 02:05:00,23.8,21.0,30.28,North,11,3.0,3.0,89,0.00,,,0.00,0,Wunderground v.1.15,2013-01-15 07:05:00,
2013-01-15 02:15:00,23.8,21.0,30.28,NE,39,3.0,5.0,89,0.00,,,0.00,0,Wunderground v.1.15,2013-01-15 07:15:00,
2013-01-15 02:20:00,23.8,21.0,30.28,ENE,57,3.0,3.0,89,0.00,,,0.00,0,Wunderground v.1.15,2013-01-15 07:20:00,
2013-01-15 02:30:00,23.8,21.0,30.28,ENE,58,2.0,3.0,89,0.00,,,0.00,0,Wunderground v.1.15,2013-01-15 07:30:00,
2013-01-15 02:40:00,23.8,21.0,30.27,NNE,25,2.0,2.0,89,0.00,,,0.00,0,Wunderground v.1.15,2013-01-15 07:40:00,
2013-01-15 02:50:00,23.9,21.1,30.27,NE,35,3.0,3.0,89,0.00,,,0.00,0,Wunderground v.1.15,2013-01-15 07:50:00,
2013-01-15 02:59:00,24.0,21.2,30.27,NNW,342,2.0,4.0,89,0.00,,,0.00,0,Wunderground v.1.15,2013-01-15 07:59:00,
2013-01-15 03:05:00,24.0,21.2,30.27,North,359,3.0,5.0,89,0.00,,,0.00,0,Wunderground v.1.15,2013-01-15 08:05:00,
2013-01-15 03:15:00,23.9,21.1,30.27,North,4,3.0,3.0,89,0.00,,,0.00,0,Wunderground v.1.15,2013-01-15 08:15:00,
2013-01-15 03:25:00,23.8,21.0,30.27,NE,48,3.0,9.0,89,0.00,,,0.00,0,Wunderground v.1.15,2013-01-15 08:25:00,
2013-01-15 03:30:00,23.8,21.0,30.27,NE,54,3.0,3.0,89,0.00,,,0.00,0,Wunderground v.1.15,2013-01-15 08:30:00,
2013-01-15 03:40:00,23.7,20.9,30.27,NNW,341,3.0,3.0,89,0.00,,,0.00,0,Wunderground v.1.15,2013-01-15 08:40:00,
2013-01-15 03:45:00,23.6,20.8,30.27,North,9,3.0,3.0,89,0.00,,,0.00,0,Wunderground v.1.15,2013-01-15 08:45:00,
2013-01-15 03:55:00,23.5,20.7,30.27,North,4,3.0,3.0,89,0.00,,,0.00,0,Wunderground v.1.15,2013-01-15 08:55:00,
2013-01-15 04:05:00,23.5,20.7,30.27,NE,52,2.0,3.0,89,0.00,,,0.00,0,Wunderground v.1.15,2013-01-15 09:05:00,
2013-01-15 04:15:00,23.4,20.6,30.27,NE,48,2.0,2.0,89,0.00,,,0.00,0,Wunderground v.1.15,2013-01-15 09:15:00,
2013-01-15 04:20:00,23.4,20.6,30.27,NE,39,1.0,1.0,89,0.00,,,0.00,0,Wunderground v.1.15,2013-01-15 09:20:00,
2013-01-15 04:30:00,23.4,20.6,30.27,NE,56,2.0,3.0,89,0.00,,,0.00,0,Wunderground v.1.15,2013-01-15 09:30:00,
2013-01-15 04:40:00,23.3,20.5,30.27,ENE,72,1.0,1.0,89,0.00,,,0.00,0,Wunderground v.1.15,2013-01-15 09:40:00,
2013-01-15 04:50:00,23.2,20.4,30.28,NE,54,1.0,1.0,89,0.00,,,0.00,0,Wunderground v.1.15,2013-01-15 09:50:00,
2013-01-15 05:00:00,23.1,20.3,30.28,NE,34,2.0,2.0,89,0.00,,,0.00,0,Wunderground v.1.15,2013-01-15 10:00:00,
2013-01-15 05:10:00,23.1,20.3,30.28,NE,52,2.0,2.0,89,0.00,,,0.00,0,Wunderground v.1.15,2013-01-15 10:10:00,
2013-01-15 05:20:00,23.2,20.4,30.28,ENE,66,3.0,3.0,89,0.00,,,0.00,0,Wunderground v.1.15,2013-01-15 10:20:00,
2013-01-15 05:25:00,23.2,20.4,30.28,NE,41,2.0,3.0,89,0.00,,,0.00,0,Wunderground v.1.15,2013-01-15 10:25:00,
2013-01-15 05:35:00,23.3,20.3,30.27,NE,54,3.0,3.0,88,0.00,,,0.00,0,Wunderground v.1.15,2013-01-15 10:35:00,
2013-01-15 05:40:00,23.2,20.4,30.28,NE,45,3.0,3.0,89,0.00,,,0.00,0,Wunderground v.1.15,2013-01-15 10:40:00,
2013-01-15 05:50:00,23.1,20.3,30.27,ENE,63,2.0,3.0,89,0.00,,,0.00,0,Wunderground v.1.15,2013-01-15 10:50:00,
2013-01-15 05:55:00,23.0,20.2,30.27,NNE,14,3.0,3.0,89,0.00,,,0.00,0,Wunderground v.1.15,2013-01-15 10:55:00,
2013-01-15 06:05:00,22.9,20.1,30.27,NE,40,3.0,7.0,89,0.00,,,0.00,0,Wunderground v.1.15,2013-01-15 11:05:00,
2013-01-15 06:10:00,23.0,20.2,30.27,NE,39,4.0,6.0,89,0.00,,,0.00,0,Wunderground v.1.15,2013-01-15 11:10:00,
2013-01-15 06:20:00,23.0,20.2,30.27,NNE,33,4.0,4.0,89,0.00,,,0.00,0,Wunderground v.1.15,2013-01-15 11:20:00,
2013-01-15 06:30:00,23.0,20.2,30.27,NE,43,4.0,6.0,89,0.00,,,0.00,0,Wunderground v.1.15,2013-01-15 11:30:00,
2013-01-15 06:39:00,23.1,20.3,30.27,NE,41,3.0,3.0,89,0.00,,,0.00,0,Wunderground v.1.15,2013-01-15 11:39:00,
2013-01-15 06:45:00,23.1,20.3,30.26,NE,49,4.0,8.0,89,0.00,,,0.00,0,Wunderground v.1.15,2013-01-15 11:45:00,
2013-01-15 06:55:00,23.2,20.4,30.27,ENE,75,5.0,5.0,89,0.00,,,0.00,0,Wunderground v.1.15,2013-01-15 11:55:00,
2013-01-15 07:00:00,23.3,20.5,30.27,NE,45,5.0,9.0,89,0.00,,,0.00,0,Wunderground v.1.15,2013-01-15 12:00:00,
2013-01-15 07:10:00,23.4,20.6,30.27,NE,48,5.0,7.0,89,0.00,,,0.00,0,Wunderground v.1.15,2013-01-15 12:10:00,
2013-01-15 07:15:00,23.4,20.6,30.27,East,88,5.0,7.0,89,0.00,,,0.00,0,Wunderground v.1.15,2013-01-15 12:15:00,
2013-01-15 07:24:00,23.5,20.5,30.27,ENE,66,4.0,8.0,88,0.00,,,0.00,0,Wunderground v.1.15,2013-01-15 12:24:00,
2013-01-15 07:30:00,23.4,20.6,30.28,East,91,4.0,4.0,89,0.00,,,0.00,0,Wunderground v.1.15,2013-01-15 12:30:00,
2013-01-15 07:40:00,23.5,20.7,30.28,ENE,61,5.0,9.0,89,0.00,,,0.00,0,Wunderground v.1.15,2013-01-15 12:40:00,
2013-01-15 07:45:00,23.5,20.7,30.28,NE,36,5.0,9.0,89,0.00,,,0.00,0,Wunderground v.1.15,2013-01-15 12:45:00,
2013-01-15 07:55:00,23.5,20.7,30.28,NE,50,6.0,8.0,89,0.00,,,0.00,0,Wunderground v.1.15,2013-01-15 12:55:00,
2013-01-15 08:00:00,23.6,20.8,30.28,East,81,6.0,9.0,89,0.00,,,0.00,0,Wunderground v.1.15,2013-01-15 13:00:00,
2013-01-15 08:10:00,23.7,20.9,30.27,NE,48,6.0,7.0,89,0.00,,,0.00,5,Wunderground v.1.15,2013-01-15 13:10:00,
2013-01-15 08:20:00,23.7,20.9,30.27,NNE,13,8.0,8.0,89,0.00,,,0.00,12,Wunderground v.1.15,2013-01-15 13:20:00,
2013-01-15 08:25:00,23.8,21.0,30.27,East,81,6.0,8.0,89,0.00,,,0.00,12,Wunderground v.1.15,2013-01-15 13:25:00,
2013-01-15 08:35:00,23.7,20.9,30.27,ENE,69,7.0,12.0,89,0.00,,,0.00,12,Wunderground v.1.15,2013-01-15 13:35:00,
2013-01-15 08:45:00,23.7,20.9,30.27,East,87,6.0,7.0,89,0.00,,,0.00,25,Wunderground v.1.15,2013-01-15 13:45:00,
2013-01-15 08:55:00,23.8,21.0,30.27,ENE,76,6.0,6.0,89,0.00,,,0.00,33,Wunderground v.1.15,2013-01-15 13:55:00,
2013-01-15 09:05:00,23.9,21.1,30.27,NE,45,5.0,6.0,89,0.00,,,0.00,25,Wunderground v.1.15,2013-01-15 14:05:00,
2013-01-15 09:10:00,24.0,21.5,30.27,NE,56,6.0,7.0,90,0.00,,,0.00,28,Wunderground v.1.15,2013-01-15 14:10:00,
2013-01-15 09:20:00,24.0,21.2,30.28,East,94,7.0,7.0,89,0.00,,,0.00,33,Wunderground v.1.15,2013-01-15 14:20:00,
2013-01-15 09:25:00,24.1,21.3,30.27,NNE,33,7.0,7.0,89,0.00,,,0.00,37,Wunderground v.1.15,2013-01-15 14:25:00,
2013-01-15 09:35:00,24.2,21.4,30.28,ENE,71,6.0,10.0,89,0.00,,,0.00,32,Wunderground v.1.15,2013-01-15 14:35:00,
2013-01-15 09:40:00,24.3,21.5,30.28,ENE,68,6.0,6.0,89,0.00,,,0.00,35,Wunderground v.1.15,2013-01-15 14:40:00,
2013-01-15 09:50:00,24.5,21.7,30.29,East,97,6.0,7.0,89,0.00,,,0.00,46,Wunderground v.1.15,2013-01-15 14:50:00,
2013-01-15 09:55:00,24.7,21.9,30.29,East,83,6.0,9.0,89,0.00,,,0.00,56,Wunderground v.1.15,2013-01-15 14:55:00,
2013-01-15 10:04:00,25.0,22.2,30.29,ENE,60,5.0,6.0,89,0.00,,,0.00,72,Wunderground v.1.15,2013-01-15 15:04:00,
2013-01-15 10:10:00,25.1,22.0,30.29,ENE,58,5.0,5.0,88,0.00,,,0.00,95,Wunderground v.1.15,2013-01-15 15:10:00,
2013-01-15 10:20:00,25.4,22.3,30.29,East,89,6.0,7.0,88,0.00,,,0.00,107,Wunderground v.1.15,2013-01-15 15:20:00,
2013-01-15 10:25:00,25.6,22.5,30.29,ENE,61,7.0,10.0,88,0.00,,,0.00,93,Wunderground v.1.15,2013-01-15 15:25:00,
2013-01-15 10:35:00,25.7,22.4,30.28,ESE,107,6.0,7.0,87,0.00,,,0.00,88,Wunderground v.1.15,2013-01-15 15:35:00,
2013-01-15 10:45:00,25.8,22.5,30.28,East,83,7.0,9.0,87,0.00,,,0.00,93,Wunderground v.1.15,2013-01-15 15:45:00,
2013-01-15 10:55:00,26.0,22.7,30.27,ENE,57,6.0,7.0,87,0.00,,,0.00,120,Wunderground v.1.15,2013-01-15 15:55:00,
2013-01-15 11:00:00,26.2,22.9,30.27,East,101,8.0,8.0,87,0.00,,,0.00,132,Wunderground v.1.15,2013-01-15 16:00:00,
2013-01-15 11:10:00,26.5,22.9,30.25,ENE,67,7.0,8.0,86,0.00,,,0.00,130,Wunderground v.1.15,2013-01-15 16:10:00,
2013-01-15 11:20:00,26.6,23.0,30.25,NE,56,7.0,7.0,86,0.00,,,0.00,105,Wunderground v.1.15,2013-01-15 16:20:00,
2013-01-15 11:30:00,26.9,23.3,30.25,ESE,102,6.0,7.0,86,0.00,,,0.00,100,Wunderground v.1.15,2013-01-15 16:30:00,
2013-01-15 11:35:00,26.9,23.3,30.25,ENE,66,7.0,8.0,86,0.00,,,0.00,111,Wunderground v.1.15,2013-01-15 16:35:00,
2013-01-15 11:45:00,27.1,23.5,30.24,ESE,115,6.0,7.0,86,0.00,,,0.00,153,Wunderground v.1.15,2013-01-15 16:45:00,
2013-01-15 11:50:00,27.3,23.4,30.24,ENE,70,6.0,11.0,85,0.00,,,0.00,158,Wunderground v.1.15,2013-01-15 16:50:00,
2013-01-15 12:00:00,27.5,23.9,30.22,NNE,18,7.0,10.0,86,0.00,,,0.00,188,Wunderground v.1.15,2013-01-15 17:00:00,
2013-01-15 12:05:00,27.6,23.7,30.23,ESE,123,7.0,10.0,85,0.00,,,0.00,185,Wunderground v.1.15,2013-01-15 17:05:00,
2013-01-15 12:15:00,28.1,23.9,30.22,ENE,72,6.0,10.0,84,0.00,,,0.00,225,Wunderground v.1.15,2013-01-15 17:15:00,
2013-01-15 12:20:00,28.2,24.3,30.22,East,89,8.0,8.0,85,0.00,,,0.00,127,Wunderground v.1.15,2013-01-15 17:20:00,
2013-01-15 12:30:00,28.3,24.1,30.21,East,94,7.0,7.0,84,0.00,,,0.00,176,Wunderground v.1.15,2013-01-15 17:30:00,
2013-01-15 12:35:00,28.5,24.3,30.21,East,82,7.0,7.0,84,0.00,,,0.00,185,Wunderground v.1.15,2013-01-15 17:35:00,
2013-01-15 12:45:00,28.7,24.2,30.20,ENE,62,6.0,10.0,83,0.00,,,0.00,308,Wunderground v.1.15,2013-01-15 17:45:00,
2013-01-15 12:50:00,28.8,24.3,30.19,ENE,70,8.0,8.0,83,0.00,,,0.00,227,Wunderground v.1.15,2013-01-15 17:50:00,
2013-01-15 13:00:00,28.9,24.4,30.18,East,85,7.0,7.0,83,0.00,,,0.00,264,Wunderground v.1.15,2013-01-15 18:00:00,
2013-01-15 13:05:00,29.0,24.5,30.18,East,88,7.0,9.0,83,0.00,,,0.00,295,Wunderground v.1.15,2013-01-15 18:05:00,
2013-01-15 13:15:00,29.5,24.7,30.17,East,85,7.0,8.0,82,0.00,,,0.00,376,Wunderground v.1.15,2013-01-15 18:15:00,
2013-01-15 13:25:00,30.3,25.2,30.16,NE,54,5.0,6.0,81,0.00,,,0.00,274,Wunderground v.1.15,2013-01-15 18:25:00,
2013-01-15 13:30:00,30.2,25.1,30.16,ENE,64,5.0,9.0,81,0.00,,,0.00,237,Wunderground v.1.15,2013-01-15 18:30:00,
2013-01-15 13:40:00,30.1,25.0,30.15,ENE,73,7.0,7.0,81,0.00,,,0.00,281,Wunderground v.1.15,2013-01-15 18:40:00,
2013-01-15 13:50:00,30.0,24.6,30.15,ENE,64,7.0,9.0,80,0.00,,,0.00,232,Wunderground v.1.15,2013-01-15 18:50:00,
2013-01-15 14:00:00,30.1,24.7,30.16,NE,51,6.0,6.0,80,0.00,,,0.00,202,Wunderground v.1.15,2013-01-15 19:00:00,
2013-01-15 14:10:00,30.6,25.5,30.15,ENE,75,6.0,6.0,81,0.00,,,0.00,156,Wunderground v.1.15,2013-01-15 19:10:00,
2013-01-15 14:15:00,30.5,25.4,30.14,East,81,6.0,8.0,81,0.00,,,0.00,141,Wunderground v.1.15,2013-01-15 19:15:00,
2013-01-15 14:25:00,30.4,25.3,30.12,East,91,6.0,6.0,81,0.00,,,0.00,114,Wunderground v.1.15,2013-01-15 19:25:00,
2013-01-15 14:30:00,30.3,25.2,30.13,East,95,7.0,7.0,81,0.00,,,0.00,81,Wunderground v.1.15,2013-01-15 19:30:00,
2013-01-15 14:40:00,30.0,24.9,30.12,East,83,9.0,9.0,81,0.00,,,0.00,70,Wunderground v.1.15,2013-01-15 19:40:00,
2013-01-15 14:45:00,30.2,25.1,30.14,NE,44,6.0,9.0,81,0.00,,,0.00,44,Wunderground v.1.15,2013-01-15 19:45:00,
2013-01-15 14:55:00,30.3,24.6,30.17,NNW,345,4.0,4.0,79,0.00,,,0.00,60,Wunderground v.1.15,2013-01-15 19:55:00,
2013-01-15 15:00:00,30.4,25.3,30.20,NW,324,5.0,6.0,81,0.00,,,0.00,54,Wunderground v.1.15,2013-01-15 20:00:00,
2013-01-15 15:10:00,30.5,25.1,30.19,NE,54,5.0,5.0,80,0.00,,,0.00,67,Wunderground v.1.15,2013-01-15 20:10:00,
2013-01-15 15:15:00,30.7,25.3,30.19,NNW,327,4.0,5.0,80,0.00,,,0.00,69,Wunderground v.1.15,2013-01-15 20:15:00,
2013-01-15 15:25:00,30.8,25.4,30.17,NNW,328,4.0,6.0,80,0.00,,,0.00,40,Wunderground v.1.15,2013-01-15 20:25:00,
2013-01-15 15:30:00,30.7,25.3,30.18,ENE,73,4.0,4.0,80,0.00,,,0.00,33,Wunderground v.1.15,2013-01-15 20:30:00,
2013-01-15 15:40:00,30.6,24.9,30.18,NNE,31,5.0,6.0,79,0.00,,,0.00,53,Wunderground v.1.15,2013-01-15 20:40:00,
2013-01-15 15:50:00,30.7,25.3,30.17,NNW,333,4.0,4.0,80,0.00,,,0.00,40,Wunderground v.1.15,2013-01-15 20:50:00,
2013-01-15 15:55:00,30.7,25.0,30.19,NE,43,3.0,4.0,79,0.00,,,0.00,47,Wunderground v.1.15,2013-01-15 20:55:00,
2013-01-15 16:05:00,30.8,24.7,30.16,ENE,57,4.0,4.0,78,0.00,,,0.00,37,Wunderground v.1.15,2013-01-15 21:05:00,
2013-01-15 16:15:00,30.8,24.7,30.16,ENE,60,4.0,4.0,78,0.00,,,0.00,26,Wunderground v.1.15,2013-01-15 21:15:00,
2013-01-15 16:25:00,30.9,24.8,30.14,NNE,21,4.0,6.0,78,0.00,,,0.00,35,Wunderground v.1.15,2013-01-15 21:25:00,
2013-01-15 16:35:00,30.9,24.8,30.12,NNE,27,6.0,6.0,78,0.00,,,0.00,25,Wunderground v.1.15,2013-01-15 21:35:00,
2013-01-15 16:40:00,31.0,24.9,30.11,NNE,25,6.0,6.0,78,0.00,,,0.00,21,Wunderground v.1.15,2013-01-15 21:40:00,
2013-01-15 16:50:00,31.1,25.0,30.14,ENE,70,5.0,5.0,78,0.00,,,0.00,12,Wunderground v.1.15,2013-01-15 21:50:00,
2013-01-15 16:55:00,31.2,25.1,30.15,NNE,19,2.0,5.0,78,0.00,,,0.00,12,Wunderground v.1.15,2013-01-15 21:55:00,
2013-01-15 17:05:00,31.3,24.9,30.15,NE,52,2.0,5.0,77,0.00,,,0.00,7,Wunderground v.1.15,2013-01-15 22:05:00,
2013-01-15 17:10:00,31.4,25.3,30.14,NE,53,4.0,4.0,78,0.00,,,0.00,5,Wunderground v.1.15,2013-01-15 22:10:00,
2013-01-15 17:20:00,31.3,25.2,30.15,NE,49,3.0,6.0,78,0.00,,,0.00,0,Wunderground v.1.15,2013-01-15 22:20:00,
2013-01-15 17:25:00,31.4,25.0,30.15,ENE,64,4.0,6.0,77,0.00,,,0.00,0,Wunderground v.1.15,2013-01-15 22:25:00,
2013-01-15 17:35:00,31.5,25.4,30.13,ENE,78,3.0,5.0,78,0.00,,,0.00,0,Wunderground v.1.15,2013-01-15 22:35:00,
2013-01-15 17:40:00,31.4,25.0,30.15,NE,52,2.0,2.0,77,0.00,,,0.00,0,Wunderground v.1.15,2013-01-15 22:40:00,
2013-01-15 17:50:00,31.4,25.0,30.13,NE,45,3.0,4.0,77,0.00,,,0.00,0,Wunderground v.1.15,2013-01-15 22:50:00,
2013-01-15 17:55:00,31.5,25.1,30.14,NE,39,3.0,4.0,77,0.00,,,0.00,0,Wunderground v.1.15,2013-01-15 22:55:00,
2013-01-15 18:05:00,31.6,25.2,30.15,ENE,64,1.0,4.0,77,0.00,,,0.00,0,Wunderground v.1.15,2013-01-15 23:05:00,
2013-01-15 18:10:00,31.7,25.6,30.15,NE,35,1.0,1.0,78,0.00,,,0.00,0,Wunderground v.1.15,2013-01-15 23:10:00,
2013-01-15 18:20:00,31.6,25.8,30.14,NE,51,2.0,4.0,79,0.00,,,0.00,0,Wunderground v.1.15,2013-01-15 23:20:00,
2013-01-15 18:25:00,31.2,26.3,30.12,NNE,16,3.0,4.0,82,0.00,,,0.00,0,Wunderground v.1.15,2013-01-15 23:25:00,
2013-01-15 18:35:00,30.7,27.0,30.12,NNE,16,3.0,4.0,86,0.00,,,0.00,0,Wunderground v.1.15,2013-01-15 23:35:00,
2013-01-15 18:40:00,30.5,27.1,30.13,NE,50,2.0,2.0,87,0.00,,,0.00,0,Wunderground v.1.15,2013-01-15 23:40:00,
2013-01-15 18:50:00,30.3,27.2,30.12,East,88,3.0,3.0,88,0.00,,,0.00,0,Wunderground v.1.15,2013-01-15 23:50:00,
2013-01-15 19:00:00,30.0,27.2,30.11,East,95,4.0,4.0,89,0.00,,,0.00,0,Wunderground v.1.15,2013-01-16 00:00:00,
2013-01-15 19:05:00,30.0,27.4,30.10,East,87,5.0,5.0,90,0.00,,,0.00,0,Wunderground v.1.15,2013-01-16 00:05:00,
2013-01-15 19:15:00,30.1,27.5,30.11,East,85,3.0,4.0,90,0.00,,,0.00,0,Wunderground v.1.15,2013-01-16 00:15:00,
2013-01-15 19:20:00,30.0,27.4,30.10,NE,48,5.0,5.0,90,0.00,,,0.00,0,Wunderground v.1.15,2013-01-16 00:20:00,
2013-01-15 19:30:00,30.1,27.8,30.10,ESE,118,5.0,5.0,91,0.00,,,0.00,0,Wunderground v.1.15,2013-01-16 00:30:00,
2013-01-15 19:35:00,30.2,28.2,30.10,NE,55,4.0,5.0,92,0.00,,,0.00,0,Wunderground v.1.15,2013-01-16 00:35:00,
2013-01-15 19:45:00,30.3,28.3,30.09,ENE,58,3.0,3.0,92,0.00,,,0.00,0,Wunderground v.1.15,2013-01-16 00:45:00,
2013-01-15 19:50:00,30.3,28.3,30.09,East,82,4.0,7.0,92,0.00,,,0.00,0,Wunderground v.1.15,2013-01-16 00:50:00,
2013-01-15 20:00:00,30.4,28.6,30.09,ESE,107,5.0,5.0,93,0.00,,,0.00,0,Wunderground v.1.15,2013-01-16 01:00:00,
2013-01-15 20:05:00,30.4,28.6,30.09,ENE,60,4.0,5.0,93,0.00,,,0.00,0,Wunderground v.1.15,2013-01-16 01:05:00,
2013-01-15 20:15:00,30.4,28.6,30.08,East,79,4.0,9.0,93,0.00,,,0.00,0,Wunderground v.1.15,2013-01-16 01:15:00,
2013-01-15 20:20:00,30.4,28.6,30.08,ESE,104,4.0,4.0,93,0.00,,,0.00,0,Wunderground v.1.15,2013-01-16 01:20:00,
2013-01-15 20:30:00,30.3,28.5,30.08,ENE,68,3.0,4.0,93,0.00,,,0.00,0,Wunderground v.1.15,2013-01-16 01:30:00,
2013-01-15 20:35:00,30.3,28.5,30.07,East,89,3.0,4.0,93,0.00,,,0.00,0,Wunderground v.1.15,2013-01-16 01:35:00,
2013-01-15 20:45:00,30.3,28.8,30.07,ENE,69,4.0,5.0,94,0.00,,,0.00,0,Wunderground v.1.15,2013-01-16 01:45:00,
2013-01-15 20:50:00,30.3,28.8,30.06,ENE,66,4.0,4.0,94,0.00,,,0.00,0,Wunderground v.1.15,2013-01-16 01:50:00,
2013-01-15 21:00:00,30.3,28.8,30.06,ENE,73,3.0,3.0,94,0.00,,,0.00,0,Wunderground v.1.15,2013-01-16 02:00:00,
2013-01-15 21:05:00,30.4,28.9,30.06,East,80,3.0,3.0,94,0.00,,,0.00,0,Wunderground v.1.15,2013-01-16 02:05:00,
2013-01-15 21:15:00,30.4,28.9,30.07,NE,45,2.0,3.0,94,0.00,,,0.00,0,Wunderground v.1.15,2013-01-16 02:15:00,
2013-01-15 21:25:00,30.4,28.9,30.08,NNE,29,1.0,1.0,94,0.00,,,0.00,0,Wunderground v.1.15,2013-01-16 02:25:00,
2013-01-15 21:30:00,30.4,28.9,30.07,ENE,58,1.0,3.0,94,0.00,,,0.00,0,Wunderground v.1.15,2013-01-16 02:30:00,
2013-01-15 21:40:00,30.4,28.9,30.04,NNE,29,2.0,2.0,94,0.00,,,0.00,0,Wunderground v.1.15,2013-01-16 02:40:00,
2013-01-15 21:45:00,30.3,28.8,30.05,NE,40,3.0,3.0,94,0.00,,,0.00,0,Wunderground v.1.15,2013-01-16 02:45:00,
2013-01-15 21:55:00,30.4,28.9,30.05,North,4,2.0,3.0,94,0.00,,,0.00,0,Wunderground v.1.15,2013-01-16 02:55:00,
2013-01-15 22:00:00,30.4,28.9,30.05,NNE,16,2.0,2.0,94,0.00,,,0.00,0,Wunderground v.1.15,2013-01-16 03:00:00,
2013-01-15 22:10:00,30.5,29.0,30.04,North,4,1.0,1.0,94,0.00,,,0.00,0,Wunderground v.1.15,2013-01-16 03:10:00,
2013-01-15 22:15:00,30.4,28.9,30.04,North,10,2.0,2.0,94,0.00,,,0.00,0,Wunderground v.1.15,2013-01-16 03:15:00,
2013-01-15 22:25:00,30.4,28.9,30.05,NE,45,2.0,4.0,94,0.00,,,0.00,0,Wunderground v.1.15,2013-01-16 03:25:00,
2013-01-15 22:30:00,30.4,28.9,30.05,North,4,3.0,4.0,94,0.00,,,0.00,0,Wunderground v.1.15,2013-01-16 03:30:00,
2013-01-15 22:40:00,30.3,28.5,30.06,North,8,2.0,2.0,93,0.00,,,0.00,0,Wunderground v.1.15,2013-01-16 03:40:00,
2013-01-15 22:45:00,30.3,28.5,30.05,NE,40,2.0,2.0,93,0.00,,,0.00,0,Wunderground v.1.15,2013-01-16 03:45:00,
2013-01-15 22:55:00,30.1,28.3,30.05,NE,38,2.0,3.0,93,0.00,,,0.00,0,Wunderground v.1.15,2013-01-16 03:55:00,
2013-01-15 23:05:00,30.1,28.3,30.05,NE,49,1.0,2.0,93,0.00,,,0.00,0,Wunderground v.1.15,2013-01-16 04:05:00,
2013-01-15 23:15:00,30.1,28.3,30.03,ENE,72,1.0,3.0,93,0.00,,,0.00,0,Wunderground v.1.15,2013-01-16 04:15:00,
2013-01-15 23:25:00,30.1,28.3,30.04,East,85,2.0,2.0,93,0.00,,,0.00,0,Wunderground v.1.15,2013-01-16 04:25:00,
2013-01-15 23:30:00,30.1,28.3,30.04,ENE,75,2.0,4.0,93,0.00,,,0.00,0,Wunderground v.1.15,2013-01-16 04:30:00,
2013-01-15 23:40:00,30.1,28.3,30.02,ENE,72,3.0,3.0,93,0.00,,,0.00,0,Wunderground v.1.15,2013-01-16 04:40:00,
2013-01-15 23:50:00,30.2,28.4,30.01,NE,48,2.0,3.0,93,0.00,,,0.00,0,Wunderground v.1.15,2013-01-16 04:50:00,
2013-01-15 23:55:00,30.2,28.4,30.02,ENE,68,3.0,5.0,93,0.00,,,0.00,0,Wunderground v.1.15,2013-01-16 04:55:00,